首页
METAR-TAF:

METAR-TAF

机场 :

阿卡普尔科, 墨西哥

纬度: 16-46N, 经度: 099-45W, 海拔: 5米

当前天气观测

该预报发布于51分钟前的15:49 UTC
风速3节,风向
温度 28°C
湿度 79%
气压 1014 hPa
能見度: 9.7公里
少量云层高于1500英尺
阴天层高于30000英尺

METAR: MMAA 201549Z 08003KT 6SM FEW015 OVC300 28/24 A2995 RMK 8/107 HZY AC

时间: 10:40 (16:40 UTC)

预报

该预报发布于3小时和9分钟前的13:31 UTC
预报有效从20日的 13点(UTC)到 21日的 18点(UTC)
风速节,风向
能見度: 9.7公里
散云层高于2000英尺
散云层高于10000英尺
多云层高于30000英尺
成为
从 20日的 17点(UTC)到 20日的 18点(UTC)
风速5节,风向南转西南
从 20日的 2100点(UTC)
风速12节,风向西转西南
能見度: 9.7公里
散云层高于1500英尺, 积雨云.
多云层高于10000英尺
短暂存在
从 20日的 21点(UTC)到 21日的 01点(UTC)
能見度: 8.0公里
多云层高于1500英尺, 积雨云.
雷暴, 雨
从 21日的 0200点(UTC)
风速5节,风向西
能見度: 9.7公里
散云层高于1500英尺
多云层高于10000英尺
几率 40%
从 21日的 02点(UTC)到 21日的 06点(UTC)
能見度: 9.7公里
小雨
从 21日的 0800点(UTC)
风速节,风向
能見度: 9.7公里
散云层高于1500英尺
多云层高于10000英尺

TAF: MMAA 201331Z 2013/2118 00000KT 6SM HZ SCT020 SCT100 BKN300 TX30/2021Z TN24/2113Z BECMG 2017/2018 21005KT FM202100 24012KT 6SM HZ SCT015CB BKN100 TEMPO 2021/2101 5SM TSRA BKN015CB FM210200 28005KT 6SM HZ SCT015 BKN100 PROB40 2102/2106 6SM -RA FM210800 00000KT 6SM HZ SCT015 BKN100

超过4000个机场的气象观测和天气预报(METAR&TAF报告)。

可查询的气象台以黄色和红色小点在地图上表示。

将鼠标移到小点上方,可查看气象台名称。

然后点击查看天气观测和预报。

如需切换地图:点击带黑十字的绿色按钮放大地图;点击带横线的绿色按钮缩小地图;或者点击绿色箭头查看邻近地区的地图。


METAR-TAF: